Terminal Aerodrome Forecast
Issued by NWS Shreveport, LA

Home | Current Version | Previous Version | Text Only | Print | Product List | Glossary On
Versions: 1 2 3 4 5 6 7 8 9 10 11 12
562
FTUS44 KSHV 210523
TAFTYR
TAF
KTYR 210523Z 2106/2206 16010G15KT P6SM SCT025 OVC045
     FM210900 15010KT P6SM BKN020 OVC040
      TEMPO 2110/2112 5SM BR BKN008 OVC015
     FM211200 17012KT 3SM BR BKN008 OVC025
     FM211500 17013G18KT P6SM BKN010 OVC025
     FM211800 18013G20KT P6SM OVC025
     FM212000 18012G17KT P6SM BKN050
     FM212200 16012KT P6SM OVC050
     FM220200 15013G19KT P6SM BKN050=

USA.gov is the U.S. government's official web portal to all federal, state and local government web resources and services.